createdAt,value
2019-05-07T00:00:07.376Z,15.10
2019-05-07T00:01:07.360Z,16.50
2019-05-07T00:02:07.377Z,15.90
2019-05-07T00:03:07.339Z,16.40
2019-05-07T00:04:07.330Z,16.50
2019-05-07T00:05:07.339Z,16.20
2019-05-07T00:06:07.308Z,15.40
2019-05-07T00:07:07.334Z,17.10
2019-05-07T00:08:07.294Z,16.70
2019-05-07T00:09:07.277Z,16.90
2019-05-07T00:10:07.301Z,16.90
2019-05-07T00:11:07.260Z,16.90
2019-05-07T00:12:07.238Z,17.20
2019-05-07T00:13:07.262Z,17.50
2019-05-07T00:14:07.230Z,16.40
2019-05-07T00:15:07.206Z,17.90
2019-05-07T00:16:07.204Z,17.90
2019-05-07T00:17:07.197Z,18.20
2019-05-07T00:18:07.195Z,16.50
2019-05-07T00:19:07.174Z,17.30
2019-05-07T00:20:07.150Z,19.40
2019-05-07T00:22:02.463Z,18.10
2019-05-07T00:23:02.930Z,18.90
2019-05-07T00:24:02.306Z,19.40
2019-05-07T00:25:03.093Z,19.90
2019-05-07T00:26:02.337Z,18.10
2019-05-07T00:27:02.785Z,17.20
2019-05-07T00:28:02.790Z,15.70
2019-05-07T00:29:02.306Z,17.90
2019-05-07T00:30:02.923Z,18.70
2019-05-07T00:31:02.844Z,19.90
2019-05-07T00:32:02.917Z,19.90
2019-05-07T00:33:02.777Z,17.20
2019-05-07T00:34:02.879Z,19.00
2019-05-07T00:35:02.499Z,18.30
2019-05-07T00:36:02.599Z,18.30
2019-05-07T00:37:02.213Z,16.80
2019-05-07T00:38:02.565Z,19.40
2019-05-07T00:39:02.804Z,18.90
2019-05-07T00:40:02.728Z,19.60
2019-05-07T00:41:02.836Z,19.30
2019-05-07T00:42:03.065Z,18.90
2019-05-07T00:43:02.680Z,19.30
2019-05-07T00:44:03.210Z,18.90
2019-05-07T00:45:14.164Z,18.40
2019-05-07T00:46:02.552Z,20.30
2019-05-07T00:47:02.189Z,19.10
2019-05-07T00:48:02.946Z,19.80
2019-05-07T00:49:02.382Z,19.80
2019-05-07T00:50:03.281Z,17.60
2019-05-07T00:51:02.295Z,19.80
2019-05-07T00:52:02.822Z,21.30
2019-05-07T00:53:02.133Z,19.70
2019-05-07T00:54:02.875Z,19.30
2019-05-07T00:55:02.962Z,19.40
2019-05-07T00:56:01.959Z,19.70
2019-05-07T00:57:03.075Z,19.80
2019-05-07T00:58:02.380Z,21.00
2019-05-07T00:59:02.216Z,19.10
2019-05-07T01:00:02.165Z,19.10
2019-05-07T01:01:02.561Z,20.60
2019-05-07T01:02:02.249Z,20.80
2019-05-07T01:03:03.024Z,20.20
2019-05-07T01:04:02.698Z,20.60
2019-05-07T01:05:03.003Z,21.60
2019-05-07T01:06:02.095Z,20.80
2019-05-07T01:07:02.710Z,22.00
2019-05-07T01:08:02.578Z,21.10
2019-05-07T01:09:03.163Z,21.00
2019-05-07T01:10:02.170Z,21.30
2019-05-07T01:11:02.236Z,21.70
2019-05-07T01:12:03.125Z,21.90
2019-05-07T01:13:02.703Z,21.40
2019-05-07T01:14:02.790Z,19.40
2019-05-07T01:15:02.852Z,20.80
2019-05-07T01:16:02.515Z,21.20
2019-05-07T01:17:02.449Z,21.70
2019-05-07T01:18:02.841Z,20.80
2019-05-07T01:19:01.897Z,20.70
2019-05-07T01:20:02.971Z,20.80
2019-05-07T01:21:02.390Z,22.00
2019-05-07T01:22:03.228Z,21.10
2019-05-07T01:23:02.609Z,21.90
2019-05-07T01:24:03.188Z,22.20
2019-05-07T01:25:02.270Z,21.90
2019-05-07T01:26:03.061Z,20.40
2019-05-07T01:27:02.167Z,20.50
2019-05-07T01:28:02.642Z,19.60
2019-05-07T01:29:02.981Z,20.00
2019-05-07T01:30:02.526Z,20.30
2019-05-07T01:31:02.173Z,19.70
2019-05-07T01:32:03.000Z,21.10
2019-05-07T01:33:02.829Z,21.20
2019-05-07T01:34:02.568Z,22.30
2019-05-07T01:35:02.438Z,21.90
2019-05-07T01:36:02.408Z,22.10
2019-05-07T01:37:02.682Z,22.80
2019-05-07T01:38:03.008Z,21.80
2019-05-07T01:39:02.666Z,22.00
2019-05-07T01:40:03.037Z,21.70
2019-05-07T01:41:02.879Z,21.90
2019-05-07T01:42:02.149Z,22.90
2019-05-07T01:43:02.562Z,20.40
2019-05-07T01:44:02.040Z,20.70
2019-05-07T01:45:02.419Z,23.10
2019-05-07T01:46:02.955Z,22.70
2019-05-07T01:47:02.546Z,22.90
2019-05-07T01:48:04.218Z,22.70
2019-05-07T01:49:02.882Z,22.00
2019-05-07T01:50:03.090Z,23.00
2019-05-07T01:51:03.217Z,23.80
2019-05-07T01:52:02.457Z,23.00
2019-05-07T01:53:00.838Z,23.20
2019-05-07T01:54:02.198Z,22.80
2019-05-07T01:55:03.108Z,23.50
2019-05-07T01:56:03.048Z,21.90
2019-05-07T01:57:02.853Z,20.90
2019-05-07T01:58:04.572Z,24.30
2019-05-07T01:59:02.428Z,21.80
2019-05-07T02:00:02.608Z,22.50
2019-05-07T02:01:02.810Z,22.90
2019-05-07T02:02:02.881Z,23.50
2019-05-07T02:03:02.692Z,23.60
2019-05-07T02:04:02.309Z,21.80
2019-05-07T02:05:03.007Z,24.70
2019-05-07T02:06:02.178Z,23.80
2019-05-07T02:07:02.653Z,23.80
2019-05-07T02:08:02.798Z,22.60
2019-05-07T02:09:02.377Z,22.80
2019-05-07T02:10:02.665Z,24.90
2019-05-07T02:11:02.116Z,23.50
2019-05-07T02:12:02.457Z,23.20
2019-05-07T02:13:02.266Z,23.40
2019-05-07T02:14:02.054Z,24.40
2019-05-07T02:15:02.697Z,23.80
2019-05-07T02:16:01.858Z,24.40
2019-05-07T02:17:02.744Z,23.70
2019-05-07T02:18:01.918Z,24.60
2019-05-07T02:19:02.173Z,24.30
2019-05-07T02:20:02.673Z,24.80
2019-05-07T02:21:00.534Z,24.60
2019-05-07T02:22:02.578Z,22.90
2019-05-07T02:23:02.593Z,24.20
2019-05-07T02:24:00.528Z,24.80
2019-05-07T02:25:00.499Z,25.90
2019-05-07T02:26:02.402Z,23.10
2019-05-07T02:27:02.829Z,21.80
2019-05-07T02:28:02.195Z,22.50
2019-05-07T02:29:02.705Z,20.90
2019-05-07T02:30:03.664Z,20.90
2019-05-07T02:31:00.429Z,21.40
2019-05-07T02:32:00.423Z,21.30
2019-05-07T02:33:03.416Z,22.10
2019-05-07T02:34:02.810Z,21.30
2019-05-07T02:35:03.677Z,21.90
2019-05-07T02:36:03.040Z,21.80
2019-05-07T02:37:03.783Z,22.20
2019-05-07T02:38:03.141Z,21.50
2019-05-07T02:39:00.343Z,22.20
2019-05-07T02:40:00.358Z,23.30
2019-05-07T02:41:02.730Z,25.50
2019-05-07T02:42:03.482Z,25.70
2019-05-07T02:43:02.903Z,25.50
2019-05-07T02:44:04.026Z,25.80
2019-05-07T02:45:03.710Z,25.80
2019-05-07T02:46:19.844Z,26.20
2019-05-07T02:47:04.057Z,25.20
2019-05-07T02:48:03.232Z,24.70
2019-05-07T02:49:02.906Z,23.20
2019-05-07T02:50:02.968Z,23.40
2019-05-07T02:51:00.222Z,23.50
2019-05-07T02:52:00.203Z,22.60
2019-05-07T02:53:00.223Z,23.80
2019-05-07T02:54:03.348Z,24.70
2019-05-07T02:55:03.496Z,25.00
2019-05-07T02:56:03.365Z,24.80
2019-05-07T02:57:03.230Z,26.00
2019-05-07T02:58:03.261Z,23.80
2019-05-07T02:59:00.132Z,22.20
2019-05-07T03:00:04.087Z,23.90
2019-05-07T03:01:00.130Z,25.20
2019-05-07T03:02:03.360Z,25.60
2019-05-07T03:03:00.150Z,23.80
2019-05-07T03:04:00.097Z,22.90
2019-05-07T03:05:00.073Z,24.40
2019-05-07T03:06:02.703Z,23.00
2019-05-07T03:07:00.050Z,27.10
2019-05-07T03:08:03.089Z,26.40
2019-05-07T03:09:02.996Z,26.00
2019-05-07T03:10:03.195Z,25.70
2019-05-07T03:11:03.037Z,26.50
2019-05-07T03:12:00.041Z,27.00
2019-05-07T03:13:02.733Z,26.30
2019-05-07T03:14:02.960Z,24.10
2019-05-07T03:14:59.959Z,22.10
2019-05-07T03:15:59.956Z,23.80
2019-05-07T03:17:02.940Z,22.20
2019-05-07T03:18:03.049Z,22.00
2019-05-07T03:18:59.933Z,23.30
2019-05-07T03:20:02.954Z,20.40
2019-05-07T03:21:03.184Z,21.30
2019-05-07T03:21:59.886Z,20.80
2019-05-07T03:23:02.972Z,20.20
2019-05-07T03:24:03.119Z,20.30
2019-05-07T03:25:02.999Z,20.60
2019-05-07T03:25:59.842Z,19.90
2019-05-07T03:27:02.869Z,20.40
2019-05-07T03:27:59.823Z,19.80
2019-05-07T03:28:59.832Z,22.40
2019-05-07T03:30:03.875Z,20.80
2019-05-07T03:30:59.784Z,22.90
2019-05-07T03:32:05.405Z,21.00
2019-05-07T03:33:06.385Z,21.20
2019-05-07T03:34:06.349Z,20.70
2019-05-07T03:35:05.980Z,20.50
2019-05-07T03:36:06.244Z,20.00
2019-05-07T03:37:05.609Z,23.00
2019-05-07T03:38:03.589Z,23.20
2019-05-07T03:39:03.446Z,19.80
2019-05-07T03:39:59.690Z,22.00
2019-05-07T03:40:59.679Z,20.90
2019-05-07T03:42:03.122Z,20.90
2019-05-07T03:43:04.870Z,20.80
2019-05-07T03:44:03.112Z,21.30
2019-05-07T03:45:03.385Z,20.10
2019-05-07T03:45:59.625Z,21.70
2019-05-07T03:47:03.216Z,22.00
2019-05-07T03:48:03.511Z,20.90
2019-05-07T03:48:59.598Z,20.90
2019-05-07T03:50:02.985Z,20.30
2019-05-07T03:50:59.571Z,20.40
2019-05-07T03:51:59.564Z,19.60
2019-05-07T03:53:02.098Z,22.30
2019-05-07T03:54:02.441Z,23.80
2019-05-07T03:54:59.547Z,20.50
2019-05-07T03:55:59.516Z,20.50
2019-05-07T03:57:07.426Z,21.30
2019-05-07T03:58:03.209Z,21.00
2019-05-07T03:58:59.489Z,20.50
2019-05-07T03:59:59.518Z,20.40
2019-05-07T04:00:59.483Z,20.80
2019-05-07T04:01:59.470Z,20.90
2019-05-07T04:02:59.468Z,19.40
2019-05-07T04:03:59.433Z,20.40
2019-05-07T04:04:59.427Z,22.40
2019-05-07T04:05:59.436Z,23.90
2019-05-07T04:06:59.396Z,24.00
2019-05-07T04:07:59.391Z,24.50
2019-05-07T04:08:59.385Z,23.60
2019-05-07T04:09:59.367Z,22.50
2019-05-07T04:10:59.373Z,20.40
2019-05-07T04:11:59.344Z,21.50
2019-05-07T04:12:59.342Z,21.20
2019-05-07T04:14:02.272Z,19.80
2019-05-07T04:14:59.311Z,20.00
2019-05-07T04:15:59.413Z,21.40
2019-05-07T04:17:14.507Z,21.20
2019-05-07T04:18:03.278Z,20.50
2019-05-07T04:18:59.275Z,21.70
2019-05-07T04:19:59.258Z,21.50
2019-05-07T04:20:59.275Z,20.20
2019-05-07T04:21:59.274Z,21.10
2019-05-07T04:22:59.236Z,22.00
2019-05-07T04:23:59.222Z,21.60
2019-05-07T04:24:59.207Z,22.70
2019-05-07T04:25:59.225Z,22.10
2019-05-07T04:26:59.184Z,21.10
2019-05-07T04:27:59.173Z,19.90
2019-05-07T04:28:59.165Z,21.20
2019-05-07T04:29:59.157Z,20.70
2019-05-07T04:30:59.166Z,22.80
2019-05-07T04:31:59.130Z,21.60
2019-05-07T04:32:59.126Z,22.80
2019-05-07T04:33:59.116Z,23.30
2019-05-07T04:34:59.098Z,23.30
2019-05-07T04:35:59.087Z,22.60
2019-05-07T04:36:59.095Z,22.00
2019-05-07T04:38:02.104Z,21.40
2019-05-07T04:39:02.873Z,21.90
2019-05-07T04:39:59.047Z,24.50
2019-05-07T04:40:59.033Z,24.20
2019-05-07T04:41:59.048Z,22.50
2019-05-07T04:42:59.011Z,24.30
2019-05-07T04:43:59.001Z,25.80
2019-05-07T04:44:58.992Z,26.00
2019-05-07T04:45:58.979Z,26.20
2019-05-07T04:46:58.988Z,24.80
2019-05-07T04:47:58.959Z,27.10
2019-05-07T04:48:58.948Z,27.60
2019-05-07T04:49:58.939Z,25.40
2019-05-07T04:50:58.928Z,24.40
2019-05-07T04:51:58.935Z,25.50
2019-05-07T04:52:58.904Z,26.20
2019-05-07T04:53:58.897Z,23.70
2019-05-07T04:54:58.886Z,22.90
2019-05-07T04:55:58.876Z,21.80
2019-05-07T04:56:58.925Z,21.80
2019-05-07T04:57:58.851Z,22.50
2019-05-07T04:58:58.840Z,23.50
2019-05-07T04:59:58.832Z,21.50
2019-05-07T05:00:58.820Z,22.30
2019-05-07T05:01:58.812Z,23.60
2019-05-07T05:02:58.819Z,24.60
2019-05-07T05:03:58.786Z,23.70
2019-05-07T05:04:58.788Z,22.50
2019-05-07T05:05:58.807Z,22.90
2019-05-07T05:06:58.757Z,23.00
2019-05-07T05:07:58.764Z,22.20
2019-05-07T05:08:58.819Z,22.70
2019-05-07T05:09:58.726Z,21.60
2019-05-07T05:10:58.721Z,23.90
2019-05-07T05:11:58.705Z,24.20
2019-05-07T05:12:58.713Z,23.00
2019-05-07T05:13:58.686Z,24.00
2019-05-07T05:14:58.667Z,25.20
2019-05-07T05:15:58.658Z,23.90
2019-05-07T05:16:58.647Z,25.10
2019-05-07T05:17:58.683Z,25.40
2019-05-07T05:18:58.639Z,25.60
2019-05-07T05:20:00.585Z,25.00
2019-05-07T05:20:58.611Z,24.20
2019-05-07T05:21:58.596Z,23.90
2019-05-07T05:22:58.591Z,24.60
2019-05-07T05:23:58.599Z,24.00
2019-05-07T05:24:58.564Z,25.70
2019-05-07T05:25:58.553Z,24.50
2019-05-07T05:26:58.545Z,25.00
2019-05-07T05:27:58.543Z,26.30
2019-05-07T05:28:58.546Z,24.80
2019-05-07T05:29:58.516Z,26.60
2019-05-07T05:30:58.501Z,26.40
2019-05-07T05:31:58.502Z,26.60
2019-05-07T05:33:01.243Z,24.90
2019-05-07T05:33:58.487Z,27.70
2019-05-07T05:34:58.466Z,26.70
2019-05-07T05:35:58.459Z,26.50
2019-05-07T05:36:58.438Z,27.50
2019-05-07T05:37:58.428Z,27.90
2019-05-07T05:38:58.442Z,28.30
2019-05-07T05:40:06.188Z,28.90
2019-05-07T05:40:59.400Z,27.60
2019-05-07T05:41:58.389Z,28.10
2019-05-07T05:42:58.376Z,28.10
2019-05-07T05:43:58.391Z,28.20
2019-05-07T05:44:58.354Z,27.20
2019-05-07T05:45:58.361Z,26.60
2019-05-07T05:46:58.336Z,26.50
2019-05-07T05:48:04.753Z,26.20
2019-05-07T05:48:59.342Z,21.20
2019-05-07T05:49:58.305Z,26.10
2019-05-07T05:50:58.295Z,25.70
2019-05-07T05:51:58.294Z,27.10
2019-05-07T05:52:58.273Z,28.30
2019-05-07T05:53:58.282Z,22.80
2019-05-07T05:54:58.251Z,24.80
2019-05-07T05:55:58.245Z,26.20
2019-05-07T05:56:58.228Z,27.10
2019-05-07T05:57:58.219Z,27.20
2019-05-07T05:58:58.232Z,26.90
2019-05-07T05:59:58.198Z,27.30
2019-05-07T06:00:58.190Z,27.10
2019-05-07T06:01:58.178Z,27.70
2019-05-07T06:02:58.168Z,26.80
2019-05-07T06:03:58.156Z,26.90
2019-05-07T06:04:58.163Z,27.00
2019-05-07T06:05:58.139Z,26.40
2019-05-07T06:07:08.777Z,27.10
2019-05-07T06:07:59.119Z,16.40
2019-05-07T06:08:58.102Z,18.50
2019-05-07T06:09:58.115Z,25.90
2019-05-07T06:10:58.082Z,27.50
2019-05-07T06:11:58.074Z,28.10
2019-05-07T06:12:58.059Z,27.60
2019-05-07T06:13:58.061Z,24.70
2019-05-07T06:14:58.057Z,16.50
2019-05-07T06:15:58.060Z,16.90
2019-05-07T06:16:58.016Z,21.90
2019-05-07T06:17:58.008Z,22.40
2019-05-07T06:18:57.996Z,25.30
2019-05-07T06:19:58.029Z,23.10
2019-05-07T06:20:57.978Z,25.50
2019-05-07T06:21:57.964Z,28.00
2019-05-07T06:22:57.956Z,27.30
2019-05-07T06:23:57.943Z,27.40
2019-05-07T06:24:57.939Z,22.40
2019-05-07T06:25:57.941Z,27.10
2019-05-07T06:26:57.910Z,24.90
2019-05-07T06:27:57.902Z,25.00
2019-05-07T06:28:57.898Z,22.90
2019-05-07T06:29:57.882Z,25.30
2019-05-07T06:30:57.890Z,25.80
2019-05-07T06:31:57.859Z,17.30
2019-05-07T06:33:05.398Z,20.80
2019-05-07T06:33:57.848Z,23.10
2019-05-07T06:34:57.827Z,26.80
2019-05-07T06:35:57.846Z,26.70
2019-05-07T06:36:57.835Z,27.70
2019-05-07T06:37:57.794Z,26.70
2019-05-07T06:38:57.784Z,24.00
2019-05-07T06:39:57.774Z,20.90
2019-05-07T06:40:57.783Z,25.60
2019-05-07T06:41:57.763Z,27.00
2019-05-07T06:42:57.742Z,27.50
2019-05-07T06:43:57.732Z,27.00
2019-05-07T06:44:57.722Z,23.30
2019-05-07T06:45:57.769Z,27.50
2019-05-07T06:46:57.702Z,21.90
2019-05-07T06:47:57.688Z,21.50
2019-05-07T06:48:57.677Z,22.20
2019-05-07T06:49:57.690Z,26.80
2019-05-07T06:50:57.726Z,26.70
2019-05-07T06:51:57.650Z,26.30
2019-05-07T06:52:57.637Z,24.40
2019-05-07T06:53:57.626Z,18.20
2019-05-07T06:54:57.648Z,17.60
2019-05-07T06:55:57.625Z,22.90
2019-05-07T06:56:57.624Z,22.10
2019-05-07T06:57:57.585Z,20.40
2019-05-07T06:58:57.573Z,24.70
2019-05-07T06:59:57.591Z,25.20
2019-05-07T07:00:57.577Z,25.40
2019-05-07T07:01:57.563Z,25.90
2019-05-07T07:02:57.534Z,21.00
2019-05-07T07:03:57.548Z,17.80
2019-05-07T07:04:57.517Z,19.00
2019-05-07T07:05:57.522Z,24.00
2019-05-07T07:06:57.509Z,25.00
2019-05-07T07:07:57.498Z,26.40
2019-05-07T07:08:57.481Z,26.30
2019-05-07T07:09:57.457Z,22.70
2019-05-07T07:10:57.471Z,25.30
2019-05-07T07:11:57.459Z,25.10
2019-05-07T07:12:57.438Z,25.00
2019-05-07T07:13:57.417Z,24.60
2019-05-07T07:14:58.162Z,19.30
2019-05-07T07:15:57.413Z,26.00
2019-05-07T07:16:57.422Z,25.40
2019-05-07T07:17:57.385Z,19.50
2019-05-07T07:18:57.362Z,23.20
2019-05-07T07:19:57.377Z,25.50
2019-05-07T07:20:57.345Z,22.50
2019-05-07T07:21:57.358Z,25.60
2019-05-07T07:22:57.344Z,25.90
2019-05-07T07:23:57.442Z,26.80
2019-05-07T07:24:57.368Z,25.90
2019-05-07T07:25:57.337Z,25.80
2019-05-07T07:26:57.277Z,26.50
2019-05-07T07:27:57.287Z,25.20
2019-05-07T07:28:57.259Z,24.60
2019-05-07T07:29:57.253Z,25.10
2019-05-07T07:30:57.237Z,23.60
2019-05-07T07:31:57.225Z,25.50
2019-05-07T07:32:57.233Z,25.70
2019-05-07T07:33:57.204Z,23.30
2019-05-07T07:34:57.195Z,24.80
2019-05-07T07:35:57.182Z,23.00
2019-05-07T07:37:06.090Z,24.90
2019-05-07T07:37:58.197Z,20.10
2019-05-07T07:38:57.152Z,23.90
2019-05-07T07:39:57.140Z,26.90
2019-05-07T07:40:57.130Z,26.20
2019-05-07T07:41:57.127Z,24.10
2019-05-07T07:42:57.145Z,20.40
2019-05-07T07:43:57.101Z,22.50
2019-05-07T07:44:57.088Z,23.60
2019-05-07T07:45:57.078Z,26.30
2019-05-07T07:46:57.073Z,26.80
2019-05-07T07:47:57.058Z,25.10
2019-05-07T07:49:08.026Z,24.00
2019-05-07T07:49:58.036Z,20.90
2019-05-07T07:50:57.025Z,21.20
2019-05-07T07:51:57.016Z,23.20
2019-05-07T07:52:57.004Z,25.70
2019-05-07T07:53:57.013Z,24.20
2019-05-07T07:54:56.982Z,22.30
2019-05-07T07:55:56.985Z,25.00
2019-05-07T07:56:56.976Z,21.90
2019-05-07T07:57:56.950Z,24.20
2019-05-07T07:58:56.963Z,22.20
2019-05-07T07:59:56.929Z,25.10
2019-05-07T08:00:56.921Z,23.80
2019-05-07T08:01:56.908Z,22.80
2019-05-07T08:02:56.898Z,22.50
2019-05-07T08:03:56.916Z,20.90
2019-05-07T08:04:56.905Z,21.00
2019-05-07T08:05:56.869Z,23.80
2019-05-07T08:06:56.858Z,18.40
2019-05-07T08:07:56.846Z,21.30
2019-05-07T08:08:56.837Z,21.90
2019-05-07T08:09:56.845Z,23.50
2019-05-07T08:10:56.813Z,23.90
2019-05-07T08:11:56.803Z,21.50
2019-05-07T08:12:56.795Z,23.40
2019-05-07T08:13:56.792Z,21.90
2019-05-07T08:15:13.563Z,23.00
2019-05-07T08:15:57.763Z,23.00
2019-05-07T08:16:56.757Z,23.10
2019-05-07T08:17:56.739Z,22.80
2019-05-07T08:18:56.728Z,19.50
2019-05-07T08:19:56.739Z,22.70
2019-05-07T08:20:56.707Z,22.50
2019-05-07T08:21:56.699Z,22.80
2019-05-07T08:22:56.696Z,20.00
2019-05-07T08:23:56.677Z,21.50
2019-05-07T08:24:56.689Z,22.40
2019-05-07T08:25:56.654Z,24.90
2019-05-07T08:26:56.645Z,24.10
2019-05-07T08:27:58.285Z,23.40
2019-05-07T08:28:56.623Z,22.60
2019-05-07T08:29:56.635Z,23.70
2019-05-07T08:30:56.602Z,25.10
2019-05-07T08:31:56.605Z,24.50
2019-05-07T08:32:56.580Z,24.80
2019-05-07T08:33:56.573Z,22.80
2019-05-07T08:34:56.585Z,23.60
2019-05-07T08:35:56.550Z,22.40
2019-05-07T08:36:56.539Z,26.00
2019-05-07T08:37:56.526Z,26.50
2019-05-07T08:38:56.517Z,26.90
2019-05-07T08:39:56.509Z,27.10
2019-05-07T08:40:56.528Z,23.00
2019-05-07T08:41:56.485Z,25.50
2019-05-07T08:42:56.476Z,23.70
2019-05-07T08:44:08.330Z,23.70
2019-05-07T08:44:57.513Z,23.20
2019-05-07T08:45:56.460Z,22.60
2019-05-07T08:46:56.431Z,23.30
2019-05-07T08:47:56.419Z,22.20
2019-05-07T08:48:56.409Z,23.60
2019-05-07T08:49:56.412Z,23.90
2019-05-07T08:50:56.408Z,22.40
2019-05-07T08:51:56.379Z,23.10
2019-05-07T08:52:56.372Z,23.00
2019-05-07T08:53:56.355Z,23.50
2019-05-07T08:54:56.350Z,22.20
2019-05-07T08:55:56.359Z,24.50
2019-05-07T08:56:56.335Z,23.90
2019-05-07T08:57:56.315Z,24.80
2019-05-07T08:58:56.337Z,24.80
2019-05-07T09:00:01.159Z,24.00
2019-05-07T09:00:57.317Z,23.60
2019-05-07T09:01:56.271Z,24.00
2019-05-07T09:02:56.261Z,22.60
2019-05-07T09:03:56.253Z,22.20
2019-05-07T09:04:56.242Z,19.70
2019-05-07T09:05:56.231Z,21.30
2019-05-07T09:06:56.237Z,22.70
2019-05-07T09:07:56.221Z,20.00
2019-05-07T09:08:56.197Z,21.70
2019-05-07T09:09:56.190Z,22.90
2019-05-07T09:10:56.176Z,23.00
2019-05-07T09:11:56.184Z,22.80
2019-05-07T09:12:56.154Z,23.40
2019-05-07T09:13:56.144Z,23.60
2019-05-07T09:14:56.132Z,20.30
2019-05-07T09:15:56.126Z,21.80
2019-05-07T09:16:56.148Z,21.30
2019-05-07T09:17:56.102Z,22.70
2019-05-07T09:18:56.094Z,21.70
2019-05-07T09:19:56.086Z,21.00
2019-05-07T09:20:56.071Z,20.80
2019-05-07T09:21:56.086Z,21.20
2019-05-07T09:22:56.049Z,21.50
2019-05-07T09:23:56.038Z,21.30
2019-05-07T09:24:56.026Z,22.10
2019-05-07T09:25:56.031Z,22.90
2019-05-07T09:26:56.025Z,22.40
2019-05-07T09:27:55.995Z,20.60
2019-05-07T09:28:55.986Z,22.80
2019-05-07T09:29:55.980Z,20.50
2019-05-07T09:30:55.962Z,21.20
2019-05-07T09:31:55.976Z,20.80
2019-05-07T09:32:55.945Z,21.10
2019-05-07T09:33:55.935Z,21.70
2019-05-07T09:34:55.932Z,20.90
2019-05-07T09:35:55.916Z,21.00
2019-05-07T09:36:56.642Z,20.10
2019-05-07T09:37:55.891Z,20.20
2019-05-07T09:38:58.999Z,21.30
2019-05-07T09:39:55.870Z,22.10
2019-05-07T09:40:57.105Z,20.90
2019-05-07T09:41:55.848Z,20.30
2019-05-07T09:42:55.860Z,20.20
2019-05-07T09:43:55.841Z,19.80
2019-05-07T09:44:55.815Z,18.00
2019-05-07T09:45:55.805Z,17.80
2019-05-07T09:46:55.793Z,16.90
2019-05-07T09:47:55.802Z,16.30
2019-05-07T09:48:55.773Z,17.60
2019-05-07T09:50:04.639Z,16.60
2019-05-07T09:50:56.751Z,16.70
2019-05-07T09:51:55.743Z,17.30
2019-05-07T09:52:55.755Z,15.30
2019-05-07T09:53:55.718Z,16.60
2019-05-07T09:54:55.709Z,16.90
2019-05-07T09:55:55.697Z,16.70
2019-05-07T09:56:55.685Z,16.80
2019-05-07T09:57:55.715Z,16.90
2019-05-07T09:58:55.665Z,16.60
2019-05-07T09:59:55.654Z,16.10
2019-05-07T10:00:55.643Z,16.70
2019-05-07T10:01:55.638Z,16.40
2019-05-07T10:02:56.764Z,16.00
2019-05-07T10:03:55.633Z,17.20
2019-05-07T10:04:55.605Z,17.70
2019-05-07T10:05:55.589Z,18.00
2019-05-07T10:06:55.579Z,18.00
2019-05-07T10:07:55.575Z,18.10
2019-05-07T10:08:55.581Z,15.80
2019-05-07T10:09:55.547Z,14.20
2019-05-07T10:10:55.545Z,16.00
2019-05-07T10:11:55.529Z,16.10
2019-05-07T10:12:55.527Z,15.00
2019-05-07T10:13:55.523Z,14.70
2019-05-07T10:14:55.495Z,14.80
2019-05-07T10:15:55.486Z,15.50
2019-05-07T10:16:55.473Z,14.60
2019-05-07T10:17:55.462Z,15.20
2019-05-07T10:18:55.473Z,15.30
2019-05-07T10:19:55.456Z,15.30
2019-05-07T10:20:55.431Z,16.20
2019-05-07T10:21:55.419Z,16.50
2019-05-07T10:22:55.411Z,16.70
2019-05-07T10:23:55.422Z,16.60
2019-05-07T10:24:55.391Z,17.30
2019-05-07T10:25:55.378Z,16.20
2019-05-07T10:26:55.368Z,15.70
2019-05-07T10:27:55.359Z,17.80
2019-05-07T10:28:55.357Z,17.10
2019-05-07T10:29:55.361Z,16.90
2019-05-07T10:30:55.326Z,16.30
2019-05-07T10:31:55.313Z,15.00
2019-05-07T10:32:55.303Z,15.30
2019-05-07T10:33:55.294Z,15.20
2019-05-07T10:34:55.302Z,16.20
2019-05-07T10:35:55.270Z,15.30
2019-05-07T10:36:55.264Z,15.50
2019-05-07T10:37:55.261Z,15.50
2019-05-07T10:38:55.240Z,15.60
2019-05-07T10:39:55.252Z,14.60
2019-05-07T10:40:55.219Z,15.00
2019-05-07T10:41:57.737Z,14.70
2019-05-07T10:42:55.197Z,14.60
2019-05-07T10:43:55.190Z,13.60
2019-05-07T10:44:55.202Z,14.50
2019-05-07T10:45:55.163Z,14.80
2019-05-07T10:46:55.166Z,15.10
2019-05-07T10:47:55.144Z,14.50
2019-05-07T10:48:55.132Z,14.90
2019-05-07T10:49:55.122Z,14.70
2019-05-07T10:50:55.134Z,14.90
2019-05-07T10:51:55.102Z,13.60
2019-05-07T10:52:55.091Z,15.00
2019-05-07T10:53:55.079Z,14.50
2019-05-07T10:54:59.606Z,14.50
2019-05-07T10:55:55.074Z,13.70
2019-05-07T10:56:55.047Z,14.30
2019-05-07T10:57:55.036Z,15.00
2019-05-07T10:58:55.024Z,14.30
2019-05-07T10:59:55.039Z,15.10
2019-05-07T11:00:55.008Z,14.70
2019-05-07T11:01:54.998Z,13.50
2019-05-07T11:02:54.985Z,14.90
2019-05-07T11:03:54.975Z,14.20
2019-05-07T11:04:55.000Z,13.40
2019-05-07T11:05:54.953Z,14.00
2019-05-07T11:06:54.941Z,14.00
2019-05-07T11:07:54.938Z,12.70
2019-05-07T11:08:54.926Z,11.30
2019-05-07T11:09:54.910Z,11.70
2019-05-07T11:10:54.918Z,11.40
2019-05-07T11:11:54.892Z,11.90
2019-05-07T11:12:54.881Z,12.10
2019-05-07T11:13:56.150Z,11.20
2019-05-07T11:14:54.857Z,12.20
2019-05-07T11:15:54.867Z,10.60
2019-05-07T11:16:54.836Z,12.00
2019-05-07T11:17:54.828Z,10.40
2019-05-07T11:18:54.813Z,11.20
2019-05-07T11:19:54.805Z,9.70
2019-05-07T11:20:54.812Z,10.70
2019-05-07T11:21:54.783Z,11.30
2019-05-07T11:22:54.783Z,11.20
2019-05-07T11:23:54.761Z,11.50
2019-05-07T11:24:54.750Z,10.50
2019-05-07T11:25:54.761Z,10.20
2019-05-07T11:26:54.727Z,10.50
2019-05-07T11:27:54.716Z,11.40
2019-05-07T11:28:54.707Z,10.60
2019-05-07T11:29:54.703Z,10.30
2019-05-07T11:30:54.716Z,10.60
2019-05-07T11:31:54.688Z,11.10
2019-05-07T11:32:54.664Z,10.30
2019-05-07T11:33:54.653Z,10.20
2019-05-07T11:34:56.385Z,9.90
2019-05-07T11:35:54.651Z,11.70
2019-05-07T11:36:54.623Z,11.20
2019-05-07T11:37:54.610Z,11.20
2019-05-07T11:38:54.601Z,11.30
2019-05-07T11:39:54.590Z,11.70
2019-05-07T11:40:54.608Z,11.50
2019-05-07T11:41:54.571Z,12.30
2019-05-07T11:42:54.572Z,11.70
2019-05-07T11:43:54.549Z,11.70
2019-05-07T11:44:55.000Z,11.60
2019-05-07T11:45:54.528Z,11.30
2019-05-07T11:46:54.539Z,9.80
2019-05-07T11:47:54.505Z,10.60
2019-05-07T11:48:54.495Z,12.00
2019-05-07T11:49:54.495Z,11.00
2019-05-07T11:51:03.754Z,11.70
2019-05-07T11:51:55.482Z,11.10
2019-05-07T11:52:54.455Z,12.40
2019-05-07T11:53:54.440Z,11.90
2019-05-07T11:54:54.429Z,12.40
2019-05-07T11:55:54.423Z,11.80
2019-05-07T11:57:02.651Z,13.00
2019-05-07T11:57:54.420Z,12.10
2019-05-07T11:58:54.887Z,11.60
2019-05-07T11:59:54.484Z,11.80
2019-05-07T12:00:54.399Z,11.80
2019-05-07T12:01:54.374Z,12.30
2019-05-07T12:02:54.349Z,11.80
2019-05-07T12:03:54.334Z,12.40
2019-05-07T12:04:54.339Z,12.40
2019-05-07T12:05:54.346Z,11.70
2019-05-07T12:06:54.341Z,11.70
2019-05-07T12:07:54.304Z,11.10
2019-05-07T12:08:54.286Z,11.10
2019-05-07T12:09:54.272Z,11.40
2019-05-07T12:10:54.288Z,11.40
2019-05-07T12:11:54.287Z,10.40
2019-05-07T12:12:54.240Z,11.90
2019-05-07T12:13:57.245Z,10.90
2019-05-07T12:14:54.257Z,11.40
2019-05-07T12:15:54.258Z,10.60
2019-05-07T12:16:54.307Z,11.10
2019-05-07T12:17:54.197Z,10.80
2019-05-07T12:18:55.500Z,9.50
2019-05-07T12:19:54.163Z,9.40
2019-05-07T12:20:54.314Z,8.30
2019-05-07T12:21:54.160Z,9.00
2019-05-07T12:22:54.131Z,10.80
2019-05-07T12:23:54.122Z,9.10
2019-05-07T12:24:54.114Z,10.00
2019-05-07T12:25:54.109Z,8.60
2019-05-07T12:26:54.108Z,10.20
2019-05-07T12:27:54.080Z,10.50
2019-05-07T12:28:54.103Z,10.10
2019-05-07T12:29:54.088Z,10.10
2019-05-07T12:30:54.753Z,10.10
2019-05-07T12:31:55.735Z,8.80
2019-05-07T12:32:54.025Z,9.20
2019-05-07T12:33:54.129Z,8.90
2019-05-07T12:34:54.006Z,9.60
2019-05-07T12:35:53.993Z,11.40
2019-05-07T12:36:53.981Z,10.30
2019-05-07T12:37:53.994Z,10.10
2019-05-07T12:38:54.741Z,9.50
2019-05-07T12:39:54.681Z,9.30
2019-05-07T12:40:53.988Z,9.90
2019-05-07T12:41:53.932Z,9.40
2019-05-07T12:42:53.942Z,8.90
2019-05-07T12:43:53.913Z,10.40
2019-05-07T12:44:53.999Z,9.40
2019-05-07T12:45:54.038Z,8.10
2019-05-07T12:46:53.880Z,7.80
2019-05-07T12:47:54.259Z,8.30
2019-05-07T12:48:53.866Z,7.20
2019-05-07T12:49:53.849Z,7.50
2019-05-07T12:50:53.872Z,8.20
2019-05-07T12:51:53.829Z,7.80
2019-05-07T12:52:53.839Z,8.00
2019-05-07T12:53:53.802Z,7.60